Terminal Aerodrome Forecast
Issued by NWS

Home | Current Version | Previous Version | Text Only | Print | Product List | Glossary Off
Versions: 1 2 3 4 5 6 7 8 9 10 11 12 13 14 15 16 17

000
FTUS43 KICT 300725 AAA
TAFRSL
TAF AMD
KRSL 300725Z 3007/3106 16005KT 5SM BR SKC
     FM300900 VRB03KT 3SM BR OVC002
      TEMPO 3010/3014 1/4SM FG
     FM301500 15008KT P6SM SKC=

USA.gov is the U.S. government's official web portal to all federal, state and local government web resources and services.